sensor_id;sensor_type;location;lat;lon;timestamp;P1;durP1;ratioP1;P2;durP2;ratioP2
24273;SDS011;12392;42.678;23.380;2023-08-01T00:00:33;3.70;;;1.70;;
24273;SDS011;12392;42.678;23.380;2023-08-01T00:02:59;1.73;;;1.60;;
24273;SDS011;12392;42.678;23.380;2023-08-01T00:05:24;5.13;;;2.00;;
24273;SDS011;12392;42.678;23.380;2023-08-01T00:07:51;3.15;;;1.65;;
24273;SDS011;12392;42.678;23.380;2023-08-01T00:10:17;1.98;;;1.88;;
24273;SDS011;12392;42.678;23.380;2023-08-01T00:12:43;2.85;;;1.83;;
24273;SDS011;12392;42.678;23.380;2023-08-01T00:15:09;4.10;;;1.70;;
24273;SDS011;12392;42.678;23.380;2023-08-01T00:17:35;4.45;;;2.15;;
24273;SDS011;12392;42.678;23.380;2023-08-01T00:20:01;3.28;;;2.00;;
24273;SDS011;12392;42.678;23.380;2023-08-01T00:22:27;5.15;;;1.98;;
24273;SDS011;12392;42.678;23.380;2023-08-01T00:24:53;1.88;;;1.73;;
24273;SDS011;12392;42.678;23.380;2023-08-01T00:27:19;3.63;;;1.80;;
24273;SDS011;12392;42.678;23.380;2023-08-01T00:29:45;5.22;;;1.85;;
24273;SDS011;12392;42.678;23.380;2023-08-01T00:32:11;3.30;;;2.20;;
24273;SDS011;12392;42.678;23.380;2023-08-01T00:34:36;6.85;;;2.33;;
24273;SDS011;12392;42.678;23.380;2023-08-01T00:37:02;3.25;;;2.20;;
24273;SDS011;12392;42.678;23.380;2023-08-01T00:39:28;3.40;;;2.42;;
24273;SDS011;12392;42.678;23.380;2023-08-01T00:41:54;4.03;;;3.13;;
24273;SDS011;12392;42.678;23.380;2023-08-01T00:44:20;6.60;;;3.50;;
24273;SDS011;12392;42.678;23.380;2023-08-01T00:46:45;5.50;;;4.18;;
24273;SDS011;12392;42.678;23.380;2023-08-01T00:49:12;5.63;;;3.58;;
24273;SDS011;12392;42.678;23.380;2023-08-01T00:51:38;9.05;;;5.20;;
24273;SDS011;12392;42.678;23.380;2023-08-01T00:54:04;11.38;;;5.70;;
24273;SDS011;12392;42.678;23.380;2023-08-01T00:56:29;8.52;;;6.40;;
24273;SDS011;12392;42.678;23.380;2023-08-01T00:58:55;7.88;;;6.18;;
24273;SDS011;12392;42.678;23.380;2023-08-01T01:01:21;10.32;;;5.72;;
24273;SDS011;12392;42.678;23.380;2023-08-01T01:03:47;7.00;;;5.03;;
24273;SDS011;12392;42.678;23.380;2023-08-01T01:06:14;9.10;;;5.68;;
24273;SDS011;12392;42.678;23.380;2023-08-01T01:08:46;9.57;;;5.88;;
24273;SDS011;12392;42.678;23.380;2023-08-01T01:11:12;7.38;;;4.90;;
24273;SDS011;12392;42.678;23.380;2023-08-01T01:13:38;6.93;;;5.57;;
24273;SDS011;12392;42.678;23.380;2023-08-01T01:16:04;9.43;;;6.47;;
24273;SDS011;12392;42.678;23.380;2023-08-01T01:18:29;6.82;;;5.95;;
24273;SDS011;12392;42.678;23.380;2023-08-01T01:20:55;8.90;;;6.53;;
24273;SDS011;12392;42.678;23.380;2023-08-01T01:23:21;15.13;;;6.10;;
24273;SDS011;12392;42.678;23.380;2023-08-01T01:25:47;9.35;;;5.60;;
24273;SDS011;12392;42.678;23.380;2023-08-01T01:28:16;7.63;;;5.30;;
24273;SDS011;12392;42.678;23.380;2023-08-01T01:30:43;7.45;;;5.60;;
24273;SDS011;12392;42.678;23.380;2023-08-01T01:33:10;7.38;;;5.65;;
24273;SDS011;12392;42.678;23.380;2023-08-01T01:35:36;11.00;;;5.40;;
24273;SDS011;12392;42.678;23.380;2023-08-01T01:38:02;8.80;;;5.55;;
24273;SDS011;12392;42.678;23.380;2023-08-01T01:40:31;8.93;;;5.55;;
24273;SDS011;12392;42.678;23.380;2023-08-01T01:42:58;8.45;;;6.07;;
24273;SDS011;12392;42.678;23.380;2023-08-01T01:45:24;7.32;;;5.57;;
24273;SDS011;12392;42.678;23.380;2023-08-01T01:47:50;7.78;;;5.70;;
24273;SDS011;12392;42.678;23.380;2023-08-01T01:50:16;8.32;;;7.53;;
24273;SDS011;12392;42.678;23.380;2023-08-01T01:52:42;8.90;;;7.93;;
24273;SDS011;12392;42.678;23.380;2023-08-01T01:55:08;9.38;;;7.57;;
24273;SDS011;12392;42.678;23.380;2023-08-01T01:57:34;8.82;;;6.70;;
24273;SDS011;12392;42.678;23.380;2023-08-01T02:00:02;6.65;;;6.00;;
24273;SDS011;12392;42.678;23.380;2023-08-01T02:02:35;8.07;;;6.72;;
24273;SDS011;12392;42.678;23.380;2023-08-01T02:05:01;8.93;;;6.20;;
24273;SDS011;12392;42.678;23.380;2023-08-01T02:07:28;8.77;;;6.15;;
24273;SDS011;12392;42.678;23.380;2023-08-01T02:09:54;9.38;;;6.57;;
24273;SDS011;12392;42.678;23.380;2023-08-01T02:12:20;5.97;;;5.40;;
24273;SDS011;12392;42.678;23.380;2023-08-01T02:14:46;7.43;;;5.68;;
24273;SDS011;12392;42.678;23.380;2023-08-01T02:17:11;6.07;;;4.90;;
24273;SDS011;12392;42.678;23.380;2023-08-01T02:19:37;5.70;;;4.78;;
24273;SDS011;12392;42.678;23.380;2023-08-01T02:22:03;5.25;;;4.60;;
24273;SDS011;12392;42.678;23.380;2023-08-01T02:24:29;6.35;;;4.80;;
24273;SDS011;12392;42.678;23.380;2023-08-01T02:26:54;6.95;;;4.57;;
24273;SDS011;12392;42.678;23.380;2023-08-01T02:29:20;6.82;;;4.93;;
24273;SDS011;12392;42.678;23.380;2023-08-01T02:31:46;10.25;;;4.80;;
24273;SDS011;12392;42.678;23.380;2023-08-01T02:34:11;6.55;;;5.00;;
24273;SDS011;12392;42.678;23.380;2023-08-01T02:36:37;5.13;;;4.55;;
24273;SDS011;12392;42.678;23.380;2023-08-01T02:39:05;5.65;;;4.60;;
24273;SDS011;12392;42.678;23.380;2023-08-01T02:41:31;6.32;;;5.07;;
24273;SDS011;12392;42.678;23.380;2023-08-01T02:43:57;7.15;;;4.90;;
24273;SDS011;12392;42.678;23.380;2023-08-01T02:46:22;8.23;;;4.78;;
24273;SDS011;12392;42.678;23.380;2023-08-01T02:48:48;4.88;;;4.38;;
24273;SDS011;12392;42.678;23.380;2023-08-01T02:51:14;4.70;;;4.18;;
24273;SDS011;12392;42.678;23.380;2023-08-01T02:53:39;9.98;;;5.07;;
24273;SDS011;12392;42.678;23.380;2023-08-01T02:56:06;9.10;;;4.90;;
24273;SDS011;12392;42.678;23.380;2023-08-01T02:58:34;6.65;;;4.88;;
24273;SDS011;12392;42.678;23.380;2023-08-01T03:01:00;6.90;;;5.13;;
24273;SDS011;12392;42.678;23.380;2023-08-01T03:03:26;6.40;;;5.80;;
24273;SDS011;12392;42.678;23.380;2023-08-01T03:05:52;7.60;;;5.68;;
24273;SDS011;12392;42.678;23.380;2023-08-01T03:08:18;9.93;;;5.70;;
24273;SDS011;12392;42.678;23.380;2023-08-01T03:10:44;11.32;;;5.85;;
24273;SDS011;12392;42.678;23.380;2023-08-01T03:13:10;6.35;;;5.40;;
24273;SDS011;12392;42.678;23.380;2023-08-01T03:15:36;6.35;;;5.60;;
24273;SDS011;12392;42.678;23.380;2023-08-01T03:18:02;9.88;;;6.28;;
24273;SDS011;12392;42.678;23.380;2023-08-01T03:20:29;7.30;;;5.25;;
24273;SDS011;12392;42.678;23.380;2023-08-01T03:22:54;11.25;;;6.03;;
24273;SDS011;12392;42.678;23.380;2023-08-01T03:25:20;11.73;;;5.25;;
24273;SDS011;12392;42.678;23.380;2023-08-01T03:27:46;7.85;;;5.13;;
24273;SDS011;12392;42.678;23.380;2023-08-01T03:30:11;10.07;;;5.50;;
24273;SDS011;12392;42.678;23.380;2023-08-01T03:32:37;6.50;;;5.18;;
24273;SDS011;12392;42.678;23.380;2023-08-01T03:35:04;7.57;;;5.03;;
24273;SDS011;12392;42.678;23.380;2023-08-01T03:37:30;13.73;;;5.45;;
24273;SDS011;12392;42.678;23.380;2023-08-01T03:39:55;8.43;;;5.40;;
24273;SDS011;12392;42.678;23.380;2023-08-01T03:42:21;7.07;;;5.63;;
24273;SDS011;12392;42.678;23.380;2023-08-01T03:44:47;6.65;;;4.70;;
24273;SDS011;12392;42.678;23.380;2023-08-01T03:47:12;8.30;;;5.63;;
24273;SDS011;12392;42.678;23.380;2023-08-01T03:49:38;7.95;;;5.88;;
24273;SDS011;12392;42.678;23.380;2023-08-01T03:52:04;6.65;;;5.00;;
24273;SDS011;12392;42.678;23.380;2023-08-01T03:54:30;8.15;;;5.28;;
24273;SDS011;12392;42.678;23.380;2023-08-01T03:56:56;8.38;;;5.75;;
24273;SDS011;12392;42.678;23.380;2023-08-01T03:59:22;9.20;;;5.57;;
24273;SDS011;12392;42.678;23.380;2023-08-01T04:01:48;8.90;;;5.13;;
24273;SDS011;12392;42.678;23.380;2023-08-01T04:04:15;7.43;;;5.65;;
24273;SDS011;12392;42.678;23.380;2023-08-01T04:06:41;9.10;;;5.72;;
24273;SDS011;12392;42.678;23.380;2023-08-01T04:09:07;6.53;;;5.55;;
24273;SDS011;12392;42.678;23.380;2023-08-01T04:11:33;6.13;;;5.20;;
24273;SDS011;12392;42.678;23.380;2023-08-01T04:13:58;9.85;;;4.97;;
24273;SDS011;12392;42.678;23.380;2023-08-01T04:16:24;10.80;;;4.95;;
24273;SDS011;12392;42.678;23.380;2023-08-01T04:18:50;11.80;;;5.90;;
24273;SDS011;12392;42.678;23.380;2023-08-01T04:21:16;8.63;;;5.00;;
24273;SDS011;12392;42.678;23.380;2023-08-01T04:23:41;6.75;;;4.43;;
24273;SDS011;12392;42.678;23.380;2023-08-01T04:26:07;7.53;;;4.78;;
24273;SDS011;12392;42.678;23.380;2023-08-01T04:28:36;7.78;;;4.47;;
24273;SDS011;12392;42.678;23.380;2023-08-01T04:31:01;9.48;;;5.15;;
24273;SDS011;12392;42.678;23.380;2023-08-01T04:33:27;8.00;;;4.72;;
24273;SDS011;12392;42.678;23.380;2023-08-01T04:35:53;8.48;;;4.20;;
24273;SDS011;12392;42.678;23.380;2023-08-01T04:38:18;8.85;;;4.57;;
24273;SDS011;12392;42.678;23.380;2023-08-01T04:40:44;7.93;;;3.80;;
24273;SDS011;12392;42.678;23.380;2023-08-01T04:43:11;8.80;;;3.90;;
24273;SDS011;12392;42.678;23.380;2023-08-01T04:45:37;4.97;;;3.65;;
24273;SDS011;12392;42.678;23.380;2023-08-01T04:48:03;5.68;;;4.05;;
24273;SDS011;12392;42.678;23.380;2023-08-01T04:50:28;5.25;;;3.70;;
24273;SDS011;12392;42.678;23.380;2023-08-01T04:52:54;6.18;;;3.95;;
24273;SDS011;12392;42.678;23.380;2023-08-01T04:55:20;7.18;;;3.92;;
24273;SDS011;12392;42.678;23.380;2023-08-01T04:57:45;4.68;;;4.28;;
24273;SDS011;12392;42.678;23.380;2023-08-01T05:00:11;7.53;;;3.67;;
24273;SDS011;12392;42.678;23.380;2023-08-01T05:02:37;4.75;;;3.70;;
24273;SDS011;12392;42.678;23.380;2023-08-01T05:05:03;5.88;;;3.85;;
24273;SDS011;12392;42.678;23.380;2023-08-01T05:07:29;4.63;;;4.22;;
24273;SDS011;12392;42.678;23.380;2023-08-01T05:09:55;5.32;;;4.22;;
24273;SDS011;12392;42.678;23.380;2023-08-01T05:12:21;6.93;;;3.92;;
24273;SDS011;12392;42.678;23.380;2023-08-01T05:14:47;5.13;;;4.00;;
24273;SDS011;12392;42.678;23.380;2023-08-01T05:17:13;7.70;;;4.15;;
24273;SDS011;12392;42.678;23.380;2023-08-01T05:19:38;8.25;;;4.38;;
24273;SDS011;12392;42.678;23.380;2023-08-01T05:22:04;7.53;;;5.10;;
24273;SDS011;12392;42.678;23.380;2023-08-01T05:24:30;5.57;;;4.97;;
24273;SDS011;12392;42.678;23.380;2023-08-01T05:26:56;10.02;;;5.32;;
24273;SDS011;12392;42.678;23.380;2023-08-01T05:29:21;12.88;;;5.70;;
24273;SDS011;12392;42.678;23.380;2023-08-01T05:31:47;7.10;;;4.57;;
24273;SDS011;12392;42.678;23.380;2023-08-01T05:34:13;11.23;;;5.82;;
24273;SDS011;12392;42.678;23.380;2023-08-01T05:36:38;8.85;;;4.97;;
24273;SDS011;12392;42.678;23.380;2023-08-01T05:39:04;10.27;;;5.53;;
24273;SDS011;12392;42.678;23.380;2023-08-01T05:41:30;9.35;;;5.53;;
24273;SDS011;12392;42.678;23.380;2023-08-01T05:43:56;10.73;;;5.93;;
24273;SDS011;12392;42.678;23.380;2023-08-01T05:46:22;9.68;;;5.57;;
24273;SDS011;12392;42.678;23.380;2023-08-01T05:48:48;9.77;;;5.50;;
24273;SDS011;12392;42.678;23.380;2023-08-01T05:51:13;7.97;;;5.63;;
24273;SDS011;12392;42.678;23.380;2023-08-01T05:53:39;9.57;;;4.85;;
24273;SDS011;12392;42.678;23.380;2023-08-01T05:56:05;9.05;;;3.92;;
24273;SDS011;12392;42.678;23.380;2023-08-01T05:58:30;4.43;;;3.65;;
24273;SDS011;12392;42.678;23.380;2023-08-01T06:00:56;8.35;;;3.22;;
24273;SDS011;12392;42.678;23.380;2023-08-01T06:03:22;6.55;;;3.83;;
24273;SDS011;12392;42.678;23.380;2023-08-01T06:05:48;10.40;;;4.15;;
24273;SDS011;12392;42.678;23.380;2023-08-01T06:08:14;9.48;;;3.78;;
24273;SDS011;12392;42.678;23.380;2023-08-01T06:10:40;7.32;;;3.50;;
24273;SDS011;12392;42.678;23.380;2023-08-01T06:13:06;5.95;;;3.75;;
24273;SDS011;12392;42.678;23.380;2023-08-01T06:15:32;7.95;;;3.97;;
24273;SDS011;12392;42.678;23.380;2023-08-01T06:17:58;9.88;;;3.95;;
24273;SDS011;12392;42.678;23.380;2023-08-01T06:20:24;9.05;;;4.03;;
24273;SDS011;12392;42.678;23.380;2023-08-01T06:22:50;9.82;;;3.47;;
24273;SDS011;12392;42.678;23.380;2023-08-01T06:25:15;5.25;;;3.58;;
24273;SDS011;12392;42.678;23.380;2023-08-01T06:27:41;7.35;;;3.95;;
24273;SDS011;12392;42.678;23.380;2023-08-01T06:30:07;7.57;;;3.85;;
24273;SDS011;12392;42.678;23.380;2023-08-01T06:32:33;10.02;;;4.15;;
24273;SDS011;12392;42.678;23.380;2023-08-01T06:34:58;7.43;;;3.95;;
24273;SDS011;12392;42.678;23.380;2023-08-01T06:37:24;10.77;;;3.58;;
24273;SDS011;12392;42.678;23.380;2023-08-01T06:39:50;10.23;;;3.88;;
24273;SDS011;12392;42.678;23.380;2023-08-01T06:42:15;6.93;;;3.88;;
24273;SDS011;12392;42.678;23.380;2023-08-01T06:44:41;8.27;;;4.18;;
24273;SDS011;12392;42.678;23.380;2023-08-01T06:47:07;16.25;;;4.50;;
24273;SDS011;12392;42.678;23.380;2023-08-01T06:49:33;7.53;;;3.58;;
24273;SDS011;12392;42.678;23.380;2023-08-01T06:51:58;7.38;;;3.72;;
24273;SDS011;12392;42.678;23.380;2023-08-01T06:54:24;13.38;;;3.75;;
24273;SDS011;12392;42.678;23.380;2023-08-01T06:56:50;6.25;;;3.50;;
24273;SDS011;12392;42.678;23.380;2023-08-01T06:59:15;7.43;;;3.63;;
24273;SDS011;12392;42.678;23.380;2023-08-01T07:01:42;7.32;;;2.90;;
24273;SDS011;12392;42.678;23.380;2023-08-01T07:04:12;7.75;;;3.75;;
24273;SDS011;12392;42.678;23.380;2023-08-01T07:06:38;10.55;;;3.25;;
24273;SDS011;12392;42.678;23.380;2023-08-01T07:09:04;12.82;;;3.75;;
24273;SDS011;12392;42.678;23.380;2023-08-01T07:11:30;9.38;;;3.17;;
24273;SDS011;12392;42.678;23.380;2023-08-01T07:13:56;6.03;;;3.65;;
24273;SDS011;12392;42.678;23.380;2023-08-01T07:16:22;6.45;;;3.13;;
24273;SDS011;12392;42.678;23.380;2023-08-01T07:18:47;7.20;;;3.80;;
24273;SDS011;12392;42.678;23.380;2023-08-01T07:21:13;7.63;;;3.53;;
24273;SDS011;12392;42.678;23.380;2023-08-01T07:23:39;6.28;;;3.42;;
24273;SDS011;12392;42.678;23.380;2023-08-01T07:26:05;7.35;;;3.97;;
24273;SDS011;12392;42.678;23.380;2023-08-01T07:28:31;8.07;;;3.63;;
24273;SDS011;12392;42.678;23.380;2023-08-01T07:33:26;7.70;;;3.13;;
24273;SDS011;12392;42.678;23.380;2023-08-01T07:35:52;5.95;;;3.20;;
24273;SDS011;12392;42.678;23.380;2023-08-01T07:38:18;9.07;;;3.60;;
24273;SDS011;12392;42.678;23.380;2023-08-01T07:40:43;10.10;;;3.22;;
24273;SDS011;12392;42.678;23.380;2023-08-01T07:43:09;11.38;;;3.53;;
24273;SDS011;12392;42.678;23.380;2023-08-01T07:45:35;5.53;;;3.20;;
24273;SDS011;12392;42.678;23.380;2023-08-01T07:48:01;8.93;;;3.28;;
24273;SDS011;12392;42.678;23.380;2023-08-01T07:50:27;8.88;;;2.58;;
24273;SDS011;12392;42.678;23.380;2023-08-01T07:52:53;8.68;;;3.38;;
24273;SDS011;12392;42.678;23.380;2023-08-01T07:55:19;18.05;;;3.17;;
24273;SDS011;12392;42.678;23.380;2023-08-01T07:57:46;6.57;;;3.08;;
24273;SDS011;12392;42.678;23.380;2023-08-01T08:00:12;7.72;;;2.60;;
24273;SDS011;12392;42.678;23.380;2023-08-01T08:02:37;9.48;;;3.00;;
24273;SDS011;12392;42.678;23.380;2023-08-01T08:05:03;8.43;;;2.83;;
24273;SDS011;12392;42.678;23.380;2023-08-01T08:07:30;6.03;;;2.90;;
24273;SDS011;12392;42.678;23.380;2023-08-01T08:09:55;4.72;;;2.85;;
24273;SDS011;12392;42.678;23.380;2023-08-01T08:12:22;6.13;;;2.83;;
24273;SDS011;12392;42.678;23.380;2023-08-01T08:14:48;7.35;;;3.20;;
24273;SDS011;12392;42.678;23.380;2023-08-01T08:17:14;7.22;;;3.22;;
24273;SDS011;12392;42.678;23.380;2023-08-01T08:19:40;7.72;;;2.78;;
24273;SDS011;12392;42.678;23.380;2023-08-01T08:22:06;5.40;;;2.88;;
24273;SDS011;12392;42.678;23.380;2023-08-01T08:24:32;5.10;;;3.38;;
24273;SDS011;12392;42.678;23.380;2023-08-01T08:26:57;8.95;;;3.13;;
24273;SDS011;12392;42.678;23.380;2023-08-01T08:29:23;10.32;;;3.22;;
24273;SDS011;12392;42.678;23.380;2023-08-01T08:31:49;3.88;;;2.80;;
24273;SDS011;12392;42.678;23.380;2023-08-01T08:34:14;9.35;;;3.35;;
24273;SDS011;12392;42.678;23.380;2023-08-01T08:36:40;7.43;;;3.45;;
24273;SDS011;12392;42.678;23.380;2023-08-01T08:39:06;7.97;;;3.10;;
24273;SDS011;12392;42.678;23.380;2023-08-01T08:41:35;9.90;;;3.88;;
24273;SDS011;12392;42.678;23.380;2023-08-01T08:44:04;8.83;;;3.73;;
24273;SDS011;12392;42.678;23.380;2023-08-01T08:46:32;6.53;;;3.75;;
24273;SDS011;12392;42.678;23.380;2023-08-01T08:48:59;7.57;;;3.22;;
24273;SDS011;12392;42.678;23.380;2023-08-01T08:51:28;9.18;;;3.40;;
24273;SDS011;12392;42.678;23.380;2023-08-01T08:53:56;5.45;;;3.50;;
24273;SDS011;12392;42.678;23.380;2023-08-01T08:56:22;7.20;;;3.70;;
24273;SDS011;12392;42.678;23.380;2023-08-01T08:58:48;6.20;;;3.70;;
24273;SDS011;12392;42.678;23.380;2023-08-01T09:01:14;10.35;;;3.90;;
24273;SDS011;12392;42.678;23.380;2023-08-01T09:03:41;6.47;;;3.67;;
24273;SDS011;12392;42.678;23.380;2023-08-01T09:06:14;4.10;;;3.58;;
24273;SDS011;12392;42.678;23.380;2023-08-01T09:08:43;8.52;;;3.40;;
24273;SDS011;12392;42.678;23.380;2023-08-01T09:11:16;4.57;;;3.33;;
24273;SDS011;12392;42.678;23.380;2023-08-01T09:13:42;6.22;;;3.38;;
24273;SDS011;12392;42.678;23.380;2023-08-01T09:16:08;8.65;;;3.30;;
24273;SDS011;12392;42.678;23.380;2023-08-01T09:18:35;6.63;;;3.40;;
24273;SDS011;12392;42.678;23.380;2023-08-01T09:21:11;6.00;;;3.60;;
24273;SDS011;12392;42.678;23.380;2023-08-01T09:23:37;4.43;;;3.40;;
24273;SDS011;12392;42.678;23.380;2023-08-01T09:26:11;15.07;;;5.78;;
24273;SDS011;12392;42.678;23.380;2023-08-01T09:28:40;5.30;;;3.72;;
24273;SDS011;12392;42.678;23.380;2023-08-01T09:31:06;6.05;;;3.97;;
24273;SDS011;12392;42.678;23.380;2023-08-01T09:33:38;7.53;;;3.60;;
24273;SDS011;12392;42.678;23.380;2023-08-01T09:36:09;5.47;;;3.58;;
24273;SDS011;12392;42.678;23.380;2023-08-01T09:38:36;12.07;;;4.57;;
24273;SDS011;12392;42.678;23.380;2023-08-01T09:41:05;6.97;;;4.30;;
24273;SDS011;12392;42.678;23.380;2023-08-01T09:43:35;6.90;;;3.63;;
24273;SDS011;12392;42.678;23.380;2023-08-01T09:46:02;40.03;;;8.10;;
24273;SDS011;12392;42.678;23.380;2023-08-01T09:48:28;6.78;;;4.70;;
24273;SDS011;12392;42.678;23.380;2023-08-01T09:51:11;10.85;;;5.55;;
24273;SDS011;12392;42.678;23.380;2023-08-01T09:53:48;6.30;;;4.22;;
24273;SDS011;12392;42.678;23.380;2023-08-01T09:56:18;10.13;;;4.80;;
24273;SDS011;12392;42.678;23.380;2023-08-01T09:58:45;5.97;;;4.70;;
24273;SDS011;12392;42.678;23.380;2023-08-01T10:01:15;10.32;;;4.18;;
24273;SDS011;12392;42.678;23.380;2023-08-01T10:03:44;10.00;;;4.70;;
24273;SDS011;12392;42.678;23.380;2023-08-01T10:06:13;8.38;;;3.88;;
24273;SDS011;12392;42.678;23.380;2023-08-01T10:08:42;7.03;;;4.50;;
24273;SDS011;12392;42.678;23.380;2023-08-01T10:11:08;6.78;;;3.80;;
24273;SDS011;12392;42.678;23.380;2023-08-01T10:13:34;5.22;;;3.58;;
24273;SDS011;12392;42.678;23.380;2023-08-01T10:16:00;7.65;;;4.10;;
24273;SDS011;12392;42.678;23.380;2023-08-01T10:18:26;9.25;;;4.57;;
24273;SDS011;12392;42.678;23.380;2023-08-01T10:20:53;64.63;;;6.57;;
24273;SDS011;12392;42.678;23.380;2023-08-01T10:23:19;12.35;;;4.30;;
24273;SDS011;12392;42.678;23.380;2023-08-01T10:25:45;9.70;;;4.25;;
24273;SDS011;12392;42.678;23.380;2023-08-01T10:28:11;6.53;;;4.55;;
24273;SDS011;12392;42.678;23.380;2023-08-01T10:30:37;6.50;;;3.13;;
24273;SDS011;12392;42.678;23.380;2023-08-01T10:33:02;9.48;;;4.28;;
24273;SDS011;12392;42.678;23.380;2023-08-01T10:35:35;5.60;;;4.07;;
24273;SDS011;12392;42.678;23.380;2023-08-01T10:38:05;9.05;;;4.57;;
24273;SDS011;12392;42.678;23.380;2023-08-01T10:40:42;9.15;;;5.50;;
24273;SDS011;12392;42.678;23.380;2023-08-01T10:43:20;10.00;;;4.60;;
24273;SDS011;12392;42.678;23.380;2023-08-01T10:45:47;12.15;;;4.35;;
24273;SDS011;12392;42.678;23.380;2023-08-01T10:48:13;7.75;;;4.28;;
24273;SDS011;12392;42.678;23.380;2023-08-01T10:50:39;8.25;;;4.32;;
24273;SDS011;12392;42.678;23.380;2023-08-01T10:53:05;8.15;;;4.10;;
24273;SDS011;12392;42.678;23.380;2023-08-01T10:55:41;6.35;;;3.80;;
24273;SDS011;12392;42.678;23.380;2023-08-01T10:58:09;15.18;;;4.05;;
24273;SDS011;12392;42.678;23.380;2023-08-01T11:00:34;9.52;;;3.33;;
24273;SDS011;12392;42.678;23.380;2023-08-01T11:03:00;13.38;;;3.85;;
24273;SDS011;12392;42.678;23.380;2023-08-01T11:05:25;5.32;;;3.78;;
24273;SDS011;12392;42.678;23.380;2023-08-01T11:07:54;10.10;;;3.63;;
24273;SDS011;12392;42.678;23.380;2023-08-01T11:10:25;6.13;;;3.70;;
24273;SDS011;12392;42.678;23.380;2023-08-01T11:12:52;6.00;;;3.35;;
24273;SDS011;12392;42.678;23.380;2023-08-01T11:15:18;12.40;;;3.95;;
24273;SDS011;12392;42.678;23.380;2023-08-01T11:17:48;6.55;;;3.25;;
24273;SDS011;12392;42.678;23.380;2023-08-01T11:20:15;9.30;;;3.72;;
24273;SDS011;12392;42.678;23.380;2023-08-01T11:22:56;4.60;;;3.45;;
24273;SDS011;12392;42.678;23.380;2023-08-01T11:25:33;10.07;;;3.45;;
24273;SDS011;12392;42.678;23.380;2023-08-01T11:28:11;5.47;;;3.58;;
24273;SDS011;12392;42.678;23.380;2023-08-01T11:30:39;6.35;;;3.30;;
24273;SDS011;12392;42.678;23.380;2023-08-01T11:33:21;6.05;;;3.17;;
24273;SDS011;12392;42.678;23.380;2023-08-01T11:35:54;11.05;;;3.70;;
24273;SDS011;12392;42.678;23.380;2023-08-01T11:38:25;11.88;;;3.63;;
24273;SDS011;12392;42.678;23.380;2023-08-01T11:40:54;10.35;;;3.65;;
24273;SDS011;12392;42.678;23.380;2023-08-01T11:43:21;5.55;;;3.17;;
24273;SDS011;12392;42.678;23.380;2023-08-01T11:45:54;6.63;;;3.00;;
24273;SDS011;12392;42.678;23.380;2023-08-01T11:48:21;3.97;;;3.40;;
24273;SDS011;12392;42.678;23.380;2023-08-01T11:50:48;7.00;;;3.13;;
24273;SDS011;12392;42.678;23.380;2023-08-01T11:53:20;4.00;;;2.88;;
24273;SDS011;12392;42.678;23.380;2023-08-01T11:58:12;4.00;;;3.00;;
24273;SDS011;12392;42.678;23.380;2023-08-01T12:00:39;6.75;;;2.97;;
24273;SDS011;12392;42.678;23.380;2023-08-01T12:03:05;6.50;;;3.13;;
24273;SDS011;12392;42.678;23.380;2023-08-01T12:05:32;8.40;;;3.30;;
24273;SDS011;12392;42.678;23.380;2023-08-01T12:08:14;8.00;;;3.22;;
24273;SDS011;12392;42.678;23.380;2023-08-01T12:10:41;6.27;;;3.37;;
24273;SDS011;12392;42.678;23.380;2023-08-01T12:13:20;12.60;;;3.58;;
24273;SDS011;12392;42.678;23.380;2023-08-01T12:15:47;5.63;;;3.20;;
24273;SDS011;12392;42.678;23.380;2023-08-01T12:18:23;7.75;;;2.75;;
24273;SDS011;12392;42.678;23.380;2023-08-01T12:20:49;10.35;;;3.33;;
24273;SDS011;12392;42.678;23.380;2023-08-01T12:23:15;6.97;;;3.60;;
24273;SDS011;12392;42.678;23.380;2023-08-01T12:25:41;14.38;;;3.60;;
24273;SDS011;12392;42.678;23.380;2023-08-01T12:28:06;5.18;;;3.40;;
24273;SDS011;12392;42.678;23.380;2023-08-01T12:30:32;5.20;;;2.72;;
24273;SDS011;12392;42.678;23.380;2023-08-01T12:32:58;6.00;;;3.28;;
24273;SDS011;12392;42.678;23.380;2023-08-01T12:35:24;4.50;;;2.92;;
24273;SDS011;12392;42.678;23.380;2023-08-01T12:37:50;13.00;;;3.78;;
24273;SDS011;12392;42.678;23.380;2023-08-01T12:40:17;14.35;;;3.40;;
24273;SDS011;12392;42.678;23.380;2023-08-01T12:42:42;5.22;;;3.25;;
24273;SDS011;12392;42.678;23.380;2023-08-01T12:45:08;8.15;;;3.53;;
24273;SDS011;12392;42.678;23.380;2023-08-01T12:47:34;4.63;;;3.40;;
24273;SDS011;12392;42.678;23.380;2023-08-01T12:50:00;10.82;;;3.30;;
24273;SDS011;12392;42.678;23.380;2023-08-01T12:52:26;9.60;;;3.42;;
24273;SDS011;12392;42.678;23.380;2023-08-01T12:54:52;7.57;;;3.10;;
24273;SDS011;12392;42.678;23.380;2023-08-01T12:57:17;6.70;;;3.40;;
24273;SDS011;12392;42.678;23.380;2023-08-01T12:59:43;5.65;;;4.05;;
24273;SDS011;12392;42.678;23.380;2023-08-01T13:02:09;8.57;;;3.40;;
24273;SDS011;12392;42.678;23.380;2023-08-01T13:04:35;13.43;;;3.60;;
24273;SDS011;12392;42.678;23.380;2023-08-01T13:07:00;10.32;;;3.67;;
24273;SDS011;12392;42.678;23.380;2023-08-01T13:09:26;5.75;;;2.95;;
24273;SDS011;12392;42.678;23.380;2023-08-01T13:11:52;11.65;;;3.42;;
24273;SDS011;12392;42.678;23.380;2023-08-01T13:14:18;7.38;;;3.10;;
24273;SDS011;12392;42.678;23.380;2023-08-01T13:16:44;10.27;;;3.25;;
24273;SDS011;12392;42.678;23.380;2023-08-01T13:19:09;16.17;;;3.72;;
24273;SDS011;12392;42.678;23.380;2023-08-01T13:21:35;8.98;;;3.67;;
24273;SDS011;12392;42.678;23.380;2023-08-01T13:24:01;25.75;;;5.03;;
24273;SDS011;12392;42.678;23.380;2023-08-01T13:26:32;4.53;;;3.47;;
24273;SDS011;12392;42.678;23.380;2023-08-01T13:28:58;7.05;;;3.00;;
24273;SDS011;12392;42.678;23.380;2023-08-01T13:31:25;7.15;;;2.85;;
24273;SDS011;12392;42.678;23.380;2023-08-01T13:33:51;18.13;;;3.58;;
24273;SDS011;12392;42.678;23.380;2023-08-01T13:36:17;3.50;;;3.00;;
24273;SDS011;12392;42.678;23.380;2023-08-01T13:38:43;8.80;;;3.17;;
24273;SDS011;12392;42.678;23.380;2023-08-01T13:41:08;6.32;;;2.97;;
24273;SDS011;12392;42.678;23.380;2023-08-01T13:43:34;8.45;;;2.80;;
24273;SDS011;12392;42.678;23.380;2023-08-01T13:46:00;9.07;;;3.03;;
24273;SDS011;12392;42.678;23.380;2023-08-01T13:48:25;4.90;;;2.70;;
24273;SDS011;12392;42.678;23.380;2023-08-01T13:50:51;6.30;;;3.00;;
24273;SDS011;12392;42.678;23.380;2023-08-01T13:53:18;10.20;;;3.03;;
24273;SDS011;12392;42.678;23.380;2023-08-01T13:55:44;6.25;;;2.90;;
24273;SDS011;12392;42.678;23.380;2023-08-01T13:58:09;6.43;;;3.30;;
24273;SDS011;12392;42.678;23.380;2023-08-01T14:00:35;8.48;;;3.25;;
24273;SDS011;12392;42.678;23.380;2023-08-01T14:03:00;59.65;;;5.55;;
24273;SDS011;12392;42.678;23.380;2023-08-01T14:05:27;8.82;;;2.90;;
24273;SDS011;12392;42.678;23.380;2023-08-01T14:07:53;87.22;;;5.07;;
24273;SDS011;12392;42.678;23.380;2023-08-01T14:10:19;5.40;;;2.67;;
24273;SDS011;12392;42.678;23.380;2023-08-01T14:12:45;7.28;;;3.00;;
24273;SDS011;12392;42.678;23.380;2023-08-01T14:15:10;8.43;;;2.92;;
24273;SDS011;12392;42.678;23.380;2023-08-01T14:17:37;5.35;;;2.95;;
24273;SDS011;12392;42.678;23.380;2023-08-01T14:20:03;4.28;;;3.00;;
24273;SDS011;12392;42.678;23.380;2023-08-01T14:22:30;3.45;;;2.83;;
24273;SDS011;12392;42.678;23.380;2023-08-01T14:24:56;7.20;;;3.03;;
24273;SDS011;12392;42.678;23.380;2023-08-01T14:27:21;6.15;;;2.60;;
24273;SDS011;12392;42.678;23.380;2023-08-01T14:29:47;7.45;;;2.85;;
24273;SDS011;12392;42.678;23.380;2023-08-01T14:32:13;6.55;;;3.30;;
24273;SDS011;12392;42.678;23.380;2023-08-01T14:34:41;5.95;;;3.05;;